sensor_id;sensor_type;location;lat;lon;timestamp;pressure;altitude;pressure_sealevel;temperature;humidity
76311;BME280;65120;59.304;18.294;2024-01-30T00:02:00;102603.47;;;2.77;75.21
76311;BME280;65120;59.304;18.294;2024-01-30T00:04:27;102599.13;;;2.76;74.88
76311;BME280;65120;59.304;18.294;2024-01-30T00:06:54;102594.75;;;2.75;74.85
76311;BME280;65120;59.304;18.294;2024-01-30T00:09:21;102592.13;;;2.73;74.93
76311;BME280;65120;59.304;18.294;2024-01-30T00:11:50;102586.66;;;2.66;74.99
76311;BME280;65120;59.304;18.294;2024-01-30T00:14:17;102589.31;;;2.67;74.92
76311;BME280;65120;59.304;18.294;2024-01-30T00:16:44;102591.91;;;2.67;74.93
76311;BME280;65120;59.304;18.294;2024-01-30T00:19:11;102589.31;;;2.67;74.95
76311;BME280;65120;59.304;18.294;2024-01-30T00:21:38;102584.06;;;2.66;74.88
76311;BME280;65120;59.304;18.294;2024-01-30T00:24:05;102581.41;;;2.64;74.96
76311;BME280;65120;59.304;18.294;2024-01-30T00:26:32;102583.13;;;2.64;75.05
76311;BME280;65120;59.304;18.294;2024-01-30T00:29:00;102584.78;;;2.62;74.95
76311;BME280;65120;59.304;18.294;2024-01-30T00:31:27;102582.97;;;2.59;74.81
76311;BME280;65120;59.304;18.294;2024-01-30T00:33:54;102581.16;;;2.58;74.88
76311;BME280;65120;59.304;18.294;2024-01-30T00:36:21;102583.72;;;2.56;74.79
76311;BME280;65120;59.304;18.294;2024-01-30T00:38:48;102593.09;;;2.54;74.65
76311;BME280;65120;59.304;18.294;2024-01-30T00:41:17;102594.69;;;2.51;74.72
76311;BME280;65120;59.304;18.294;2024-01-30T00:43:45;102592.00;;;2.48;74.60
76311;BME280;65120;59.304;18.294;2024-01-30T00:46:13;102587.47;;;2.42;74.64
76311;BME280;65120;59.304;18.294;2024-01-30T00:48:40;102601.28;;;2.44;74.68
76311;BME280;65120;59.304;18.294;2024-01-30T00:51:07;102608.13;;;2.42;74.57
76311;BME280;65120;59.304;18.294;2024-01-30T00:53:34;102600.19;;;2.37;74.50
76311;BME280;65120;59.304;18.294;2024-01-30T00:56:01;102601.81;;;2.35;74.66
76311;BME280;65120;59.304;18.294;2024-01-30T00:58:29;102598.31;;;2.33;74.46
76311;BME280;65120;59.304;18.294;2024-01-30T01:00:55;102588.72;;;2.31;74.44
76311;BME280;65120;59.304;18.294;2024-01-30T01:03:24;102594.66;;;2.28;74.44
76311;BME280;65120;59.304;18.294;2024-01-30T01:05:51;102592.91;;;2.27;74.32
76311;BME280;65120;59.304;18.294;2024-01-30T01:08:18;102593.66;;;2.25;74.51
76311;BME280;65120;59.304;18.294;2024-01-30T01:10:45;102590.03;;;2.21;74.71
76311;BME280;65120;59.304;18.294;2024-01-30T01:13:12;102596.91;;;2.21;74.29
76311;BME280;65120;59.304;18.294;2024-01-30T01:15:39;102585.56;;;2.17;74.68
76311;BME280;65120;59.304;18.294;2024-01-30T01:18:06;102589.00;;;2.16;74.72
76311;BME280;65120;59.304;18.294;2024-01-30T01:20:36;102589.63;;;2.10;74.55
76311;BME280;65120;59.304;18.294;2024-01-30T01:23:03;102592.19;;;2.10;74.40
76311;BME280;65120;59.304;18.294;2024-01-30T01:25:30;102593.81;;;2.08;74.47
76311;BME280;65120;59.304;18.294;2024-01-30T01:27:57;102592.00;;;2.06;74.31
76311;BME280;65120;59.304;18.294;2024-01-30T01:30:26;102583.06;;;1.98;74.48
76311;BME280;65120;59.304;18.294;2024-01-30T01:32:54;102594.38;;;2.01;74.44
76311;BME280;65120;59.304;18.294;2024-01-30T01:35:23;102597.72;;;1.99;74.26
76311;BME280;65120;59.304;18.294;2024-01-30T01:37:52;102589.03;;;1.97;74.44
76311;BME280;65120;59.304;18.294;2024-01-30T01:40:22;102589.78;;;1.94;74.25
76311;BME280;65120;59.304;18.294;2024-01-30T01:42:49;102579.34;;;1.91;74.35
76311;BME280;65120;59.304;18.294;2024-01-30T01:45:17;102589.59;;;1.89;74.58
76311;BME280;65120;59.304;18.294;2024-01-30T01:47:46;102589.53;;;1.88;74.49
76311;BME280;65120;59.304;18.294;2024-01-30T01:50:15;102583.28;;;1.83;74.38
76311;BME280;65120;59.304;18.294;2024-01-30T01:52:44;102595.31;;;1.82;74.48
76311;BME280;65120;59.304;18.294;2024-01-30T01:55:14;102589.22;;;1.80;74.39
76311;BME280;65120;59.304;18.294;2024-01-30T01:57:43;102593.41;;;1.78;74.65
76311;BME280;65120;59.304;18.294;2024-01-30T02:00:10;102605.31;;;1.75;74.43
76311;BME280;65120;59.304;18.294;2024-01-30T02:02:39;102585.41;;;1.72;74.47
76311;BME280;65120;59.304;18.294;2024-01-30T02:05:06;102580.19;;;1.70;74.66
76311;BME280;65120;59.304;18.294;2024-01-30T02:07:33;102578.38;;;1.68;74.66
76311;BME280;65120;59.304;18.294;2024-01-30T02:10:00;102585.16;;;1.66;74.47
76311;BME280;65120;59.304;18.294;2024-01-30T02:12:28;102583.28;;;1.62;74.46
76311;BME280;65120;59.304;18.294;2024-01-30T02:14:55;102577.94;;;1.59;74.26
76311;BME280;65120;59.304;18.294;2024-01-30T02:17:23;102582.22;;;1.58;74.34
76311;BME280;65120;59.304;18.294;2024-01-30T02:19:51;102577.81;;;1.56;74.14
76311;BME280;65120;59.304;18.294;2024-01-30T02:22:20;102584.56;;;1.52;74.45
76311;BME280;65120;59.304;18.294;2024-01-30T02:24:48;102568.72;;;1.44;74.68
76311;BME280;65120;59.304;18.294;2024-01-30T02:27:14;102567.81;;;1.42;74.30
76311;BME280;65120;59.304;18.294;2024-01-30T02:29:42;102576.47;;;1.44;74.37
76311;BME280;65120;59.304;18.294;2024-01-30T02:32:08;102575.53;;;1.42;74.42
76311;BME280;65120;59.304;18.294;2024-01-30T02:34:35;102571.88;;;1.37;74.51
76311;BME280;65120;59.304;18.294;2024-01-30T02:37:03;102579.63;;;1.37;74.35
76311;BME280;65120;59.304;18.294;2024-01-30T02:39:31;102581.22;;;1.35;74.63
76311;BME280;65120;59.304;18.294;2024-01-30T02:41:58;102577.66;;;1.32;74.35
76311;BME280;65120;59.304;18.294;2024-01-30T02:44:25;102579.25;;;1.30;74.45
76311;BME280;65120;59.304;18.294;2024-01-30T02:46:52;102580.88;;;1.28;74.25
76311;BME280;65120;59.304;18.294;2024-01-30T02:49:20;102579.88;;;1.24;74.20
76311;BME280;65120;59.304;18.294;2024-01-30T02:51:47;102571.19;;;1.22;74.50
76311;BME280;65120;59.304;18.294;2024-01-30T02:54:14;102566.66;;;1.16;74.54
76311;BME280;65120;59.304;18.294;2024-01-30T02:56:42;102576.19;;;1.19;74.57
76311;BME280;65120;59.304;18.294;2024-01-30T02:59:09;102573.50;;;1.16;74.42
76311;BME280;65120;59.304;18.294;2024-01-30T03:01:42;102575.19;;;1.15;74.57
76311;BME280;65120;59.304;18.294;2024-01-30T03:04:09;102562.13;;;1.11;74.27
76311;BME280;65120;59.304;18.294;2024-01-30T03:06:37;102568.88;;;1.09;74.60
76311;BME280;65120;59.304;18.294;2024-01-30T03:09:03;102576.53;;;1.07;74.28
76311;BME280;65120;59.304;18.294;2024-01-30T03:11:31;102569.63;;;1.06;74.08
76311;BME280;65120;59.304;18.294;2024-01-30T03:13:59;102572.13;;;1.05;74.52
76311;BME280;65120;59.304;18.294;2024-01-30T03:16:26;102578.03;;;1.02;74.59
76311;BME280;65120;59.304;18.294;2024-01-30T03:18:53;102577.97;;;1.00;74.73
76311;BME280;65120;59.304;18.294;2024-01-30T03:21:20;102583.03;;;0.99;74.63
76311;BME280;65120;59.304;18.294;2024-01-30T03:23:47;102578.66;;;0.96;74.96
76311;BME280;65120;59.304;18.294;2024-01-30T03:26:14;102587.03;;;0.92;74.46
76311;BME280;65120;59.304;18.294;2024-01-30T03:28:41;102598.16;;;0.91;74.65
76311;BME280;65120;59.304;18.294;2024-01-30T03:31:09;102595.59;;;0.91;74.49
76311;BME280;65120;59.304;18.294;2024-01-30T03:33:36;102598.97;;;0.90;74.76
76311;BME280;65120;59.304;18.294;2024-01-30T03:36:05;102595.44;;;0.88;74.68
76311;BME280;65120;59.304;18.294;2024-01-30T03:38:32;102567.34;;;0.75;74.48
76311;BME280;65120;59.304;18.294;2024-01-30T03:40:59;102595.31;;;0.85;75.05
76311;BME280;65120;59.304;18.294;2024-01-30T03:43:26;102586.41;;;0.78;74.35
76311;BME280;65120;59.304;18.294;2024-01-30T03:45:53;102593.38;;;0.81;75.02
76311;BME280;65120;59.304;18.294;2024-01-30T03:48:22;102587.28;;;0.79;74.27
76311;BME280;65120;59.304;18.294;2024-01-30T03:50:49;102594.06;;;0.77;74.82
76311;BME280;65120;59.304;18.294;2024-01-30T03:53:16;102591.41;;;0.75;74.44
76311;BME280;65120;59.304;18.294;2024-01-30T03:55:43;102596.56;;;0.75;74.86
76311;BME280;65120;59.304;18.294;2024-01-30T03:58:10;102584.00;;;0.64;74.43
76311;BME280;65120;59.304;18.294;2024-01-30T04:00:37;102603.28;;;0.72;75.09
76311;BME280;65120;59.304;18.294;2024-01-30T04:03:04;102602.31;;;0.70;74.85
76311;BME280;65120;59.304;18.294;2024-01-30T04:05:32;102600.56;;;0.69;74.97
76311;BME280;65120;59.304;18.294;2024-01-30T04:07:59;102604.75;;;0.67;74.83
76311;BME280;65120;59.304;18.294;2024-01-30T04:10:26;102613.28;;;0.66;74.64
76311;BME280;65120;59.304;18.294;2024-01-30T04:12:53;102609.75;;;0.64;74.62
76311;BME280;65120;59.304;18.294;2024-01-30T04:15:21;102611.38;;;0.62;75.17
76311;BME280;65120;59.304;18.294;2024-01-30T04:17:48;102606.06;;;0.58;74.47
76311;BME280;65120;59.304;18.294;2024-01-30T04:20:15;102613.88;;;0.60;74.73
76311;BME280;65120;59.304;18.294;2024-01-30T04:22:45;102606.00;;;0.57;75.13
76311;BME280;65120;59.304;18.294;2024-01-30T04:25:12;102617.19;;;0.57;74.72
76311;BME280;65120;59.304;18.294;2024-01-30T04:27:39;102617.19;;;0.57;75.07
76311;BME280;65120;59.304;18.294;2024-01-30T04:30:07;102611.06;;;0.55;74.83
76311;BME280;65120;59.304;18.294;2024-01-30T04:32:35;102611.06;;;0.55;75.32
76311;BME280;65120;59.304;18.294;2024-01-30T04:35:02;102612.78;;;0.55;75.10
76311;BME280;65120;59.304;18.294;2024-01-30T04:37:29;102617.94;;;0.55;74.94
76311;BME280;65120;59.304;18.294;2024-01-30T04:39:57;102611.03;;;0.54;75.73
76311;BME280;65120;59.304;18.294;2024-01-30T04:42:24;102615.25;;;0.53;74.98
76311;BME280;65120;59.304;18.294;2024-01-30T04:44:51;102614.38;;;0.53;75.62
76311;BME280;65120;59.304;18.294;2024-01-30T04:47:18;102616.09;;;0.52;75.56
76311;BME280;65120;59.304;18.294;2024-01-30T04:49:45;102611.75;;;0.51;75.56
76311;BME280;65120;59.304;18.294;2024-01-30T04:52:12;102614.31;;;0.51;75.13
76311;BME280;65120;59.304;18.294;2024-01-30T04:54:39;102613.44;;;0.51;75.52
76311;BME280;65120;59.304;18.294;2024-01-30T04:57:08;102605.72;;;0.51;75.25
76311;BME280;65120;59.304;18.294;2024-01-30T04:59:37;102599.59;;;0.49;75.82
76311;BME280;65120;59.304;18.294;2024-01-30T05:02:04;102597.81;;;0.48;75.35
76311;BME280;65120;59.304;18.294;2024-01-30T05:04:32;102605.53;;;0.48;75.50
76311;BME280;65120;59.304;18.294;2024-01-30T05:06:59;102596.94;;;0.47;75.80
76311;BME280;65120;59.304;18.294;2024-01-30T05:09:26;102596.00;;;0.45;75.33
76311;BME280;65120;59.304;18.294;2024-01-30T05:11:53;102599.47;;;0.46;75.60
76311;BME280;65120;59.304;18.294;2024-01-30T05:14:22;102600.19;;;0.43;75.42
76311;BME280;65120;59.304;18.294;2024-01-30T05:16:49;102601.06;;;0.44;75.19
76311;BME280;65120;59.304;18.294;2024-01-30T05:19:16;102598.41;;;0.42;75.75
76311;BME280;65120;59.304;18.294;2024-01-30T05:21:44;102593.25;;;0.42;75.52
76311;BME280;65120;59.304;18.294;2024-01-30T05:24:11;102596.66;;;0.41;75.66
76311;BME280;65120;59.304;18.294;2024-01-30T05:26:38;102597.53;;;0.42;75.66
76311;BME280;65120;59.304;18.294;2024-01-30T05:29:05;102601.81;;;0.41;75.51
76311;BME280;65120;59.304;18.294;2024-01-30T05:31:34;102595.69;;;0.39;75.50
76311;BME280;65120;59.304;18.294;2024-01-30T05:34:01;102601.75;;;0.40;75.57
76311;BME280;65120;59.304;18.294;2024-01-30T05:36:28;102596.59;;;0.40;75.83
76311;BME280;65120;59.304;18.294;2024-01-30T05:38:56;102597.38;;;0.39;75.31
76311;BME280;65120;59.304;18.294;2024-01-30T05:41:23;102608.56;;;0.39;75.26
76311;BME280;65120;59.304;18.294;2024-01-30T05:43:50;102606.00;;;0.39;75.55
76311;BME280;65120;59.304;18.294;2024-01-30T05:46:17;102610.22;;;0.37;75.20
76311;BME280;65120;59.304;18.294;2024-01-30T05:48:45;102611.97;;;0.38;75.32
76311;BME280;65120;59.304;18.294;2024-01-30T05:51:12;102609.28;;;0.37;75.81
76311;BME280;65120;59.304;18.294;2024-01-30T05:53:39;102598.13;;;0.36;75.90
76311;BME280;65120;59.304;18.294;2024-01-30T05:56:06;102598.13;;;0.36;75.61
76311;BME280;65120;59.304;18.294;2024-01-30T05:58:34;102598.06;;;0.34;75.25
76311;BME280;65120;59.304;18.294;2024-01-30T06:01:03;102596.38;;;0.35;75.92
76311;BME280;65120;59.304;18.294;2024-01-30T06:03:30;102600.63;;;0.34;75.39
76311;BME280;65120;59.304;18.294;2024-01-30T06:05:58;102595.50;;;0.34;75.87
76311;BME280;65120;59.304;18.294;2024-01-30T06:08:25;102596.38;;;0.35;75.51
76311;BME280;65120;59.304;18.294;2024-01-30T06:10:52;102593.69;;;0.33;75.50
76311;BME280;65120;59.304;18.294;2024-01-30T06:13:20;102600.53;;;0.33;75.27
76311;BME280;65120;59.304;18.294;2024-01-30T06:15:47;102598.06;;;0.34;75.59
76311;BME280;65120;59.304;18.294;2024-01-30T06:18:14;102601.44;;;0.33;75.72
76311;BME280;65120;59.304;18.294;2024-01-30T06:20:42;102602.25;;;0.32;76.22
76311;BME280;65120;59.304;18.294;2024-01-30T06:23:10;102597.09;;;0.32;75.86
76311;BME280;65120;59.304;18.294;2024-01-30T06:25:38;102596.22;;;0.32;76.05
76311;BME280;65120;59.304;18.294;2024-01-30T06:28:05;102589.13;;;0.28;75.64
76311;BME280;65120;59.304;18.294;2024-01-30T06:30:32;102601.38;;;0.32;75.71
76311;BME280;65120;59.304;18.294;2024-01-30T06:32:59;102599.63;;;0.31;76.22
76311;BME280;65120;59.304;18.294;2024-01-30T06:35:26;102598.78;;;0.32;75.85
76311;BME280;65120;59.304;18.294;2024-01-30T06:37:54;102598.84;;;0.33;75.91
76311;BME280;65120;59.304;18.294;2024-01-30T06:40:22;102597.09;;;0.32;76.17
76311;BME280;65120;59.304;18.294;2024-01-30T06:42:50;102597.97;;;0.33;75.96
76311;BME280;65120;59.304;18.294;2024-01-30T06:45:16;102585.78;;;0.29;76.00
76311;BME280;65120;59.304;18.294;2024-01-30T06:47:43;102588.53;;;0.33;76.20
76311;BME280;65120;59.304;18.294;2024-01-30T06:50:10;102594.59;;;0.34;75.96
76311;BME280;65120;59.304;18.294;2024-01-30T06:52:37;102591.13;;;0.33;76.13
76311;BME280;65120;59.304;18.294;2024-01-30T06:55:05;102593.69;;;0.33;76.57
76311;BME280;65120;59.304;18.294;2024-01-30T06:57:33;102602.34;;;0.34;76.28
76311;BME280;65120;59.304;18.294;2024-01-30T07:00:00;102587.53;;;0.30;76.61
76311;BME280;65120;59.304;18.294;2024-01-30T07:02:27;102594.38;;;0.29;76.53
76311;BME280;65120;59.304;18.294;2024-01-30T07:04:54;102600.63;;;0.34;76.35
76311;BME280;65120;59.304;18.294;2024-01-30T07:07:21;102597.25;;;0.35;76.37
76311;BME280;65120;59.304;18.294;2024-01-30T07:09:48;102593.56;;;0.30;76.68
76311;BME280;65120;59.304;18.294;2024-01-30T07:12:18;102600.69;;;0.36;76.48
76311;BME280;65120;59.304;18.294;2024-01-30T07:14:46;102599.00;;;0.37;77.04
76311;BME280;65120;59.304;18.294;2024-01-30T07:17:13;102602.38;;;0.35;76.72
76311;BME280;65120;59.304;18.294;2024-01-30T07:19:40;102597.25;;;0.35;76.98
76311;BME280;65120;59.304;18.294;2024-01-30T07:22:07;102598.94;;;0.35;76.60
76311;BME280;65120;59.304;18.294;2024-01-30T07:24:34;102598.13;;;0.36;76.75
76311;BME280;65120;59.304;18.294;2024-01-30T07:27:02;102593.84;;;0.37;76.81
76311;BME280;65120;59.304;18.294;2024-01-30T07:29:29;102591.22;;;0.35;77.03
76311;BME280;65120;59.304;18.294;2024-01-30T07:31:57;102583.53;;;0.37;76.65
76311;BME280;65120;59.304;18.294;2024-01-30T07:34:24;102579.31;;;0.37;76.37
76311;BME280;65120;59.304;18.294;2024-01-30T07:36:51;102569.88;;;0.38;76.95
76311;BME280;65120;59.304;18.294;2024-01-30T07:39:18;102574.16;;;0.37;76.28
76311;BME280;65120;59.304;18.294;2024-01-30T07:41:45;102569.88;;;0.38;76.79
76311;BME280;65120;59.304;18.294;2024-01-30T07:44:12;102578.47;;;0.38;76.66
76311;BME280;65120;59.304;18.294;2024-01-30T07:46:39;102581.94;;;0.39;77.11
76311;BME280;65120;59.304;18.294;2024-01-30T07:49:07;102577.53;;;0.36;76.51
76311;BME280;65120;59.304;18.294;2024-01-30T07:51:35;102582.81;;;0.39;76.76
76311;BME280;65120;59.304;18.294;2024-01-30T07:54:02;102593.13;;;0.39;76.72
76311;BME280;65120;59.304;18.294;2024-01-30T07:56:30;102596.59;;;0.40;77.13
76311;BME280;65120;59.304;18.294;2024-01-30T07:58:57;102582.03;;;0.40;76.69
76311;BME280;65120;59.304;18.294;2024-01-30T08:01:24;102575.91;;;0.38;77.04
76311;BME280;65120;59.304;18.294;2024-01-30T08:03:51;102576.94;;;0.42;77.29
76311;BME280;65120;59.304;18.294;2024-01-30T08:06:19;102578.72;;;0.43;76.92
76311;BME280;65120;59.304;18.294;2024-01-30T08:08:46;102581.34;;;0.44;77.33
76311;BME280;65120;59.304;18.294;2024-01-30T08:11:13;102583.03;;;0.44;77.04
76311;BME280;65120;59.304;18.294;2024-01-30T08:13:40;102574.59;;;0.46;76.97
76311;BME280;65120;59.304;18.294;2024-01-30T08:16:07;102578.91;;;0.47;77.11
76311;BME280;65120;59.304;18.294;2024-01-30T08:18:34;102567.81;;;0.48;76.88
76311;BME280;65120;59.304;18.294;2024-01-30T08:21:01;102571.34;;;0.50;77.13
76311;BME280;65120;59.304;18.294;2024-01-30T08:23:29;102560.25;;;0.51;76.93
76311;BME280;65120;59.304;18.294;2024-01-30T08:25:56;102555.09;;;0.51;76.89
76311;BME280;65120;59.304;18.294;2024-01-30T08:28:27;102555.09;;;0.51;77.43
76311;BME280;65120;59.304;18.294;2024-01-30T08:30:54;102543.97;;;0.52;77.00
76311;BME280;65120;59.304;18.294;2024-01-30T08:33:21;102550.88;;;0.53;76.94
76311;BME280;65120;59.304;18.294;2024-01-30T08:35:48;102544.94;;;0.54;77.10
76311;BME280;65120;59.304;18.294;2024-01-30T08:38:15;102542.34;;;0.54;76.83
76311;BME280;65120;59.304;18.294;2024-01-30T08:40:43;102522.13;;;0.44;76.94
76311;BME280;65120;59.304;18.294;2024-01-30T08:43:10;102534.53;;;0.53;77.01
76311;BME280;65120;59.304;18.294;2024-01-30T08:45:38;102539.03;;;0.57;77.23
76311;BME280;65120;59.304;18.294;2024-01-30T08:48:05;102547.66;;;0.57;77.52
76311;BME280;65120;59.304;18.294;2024-01-30T08:50:33;102544.09;;;0.55;77.03
76311;BME280;65120;59.304;18.294;2024-01-30T08:53:00;102546.81;;;0.58;77.34
76311;BME280;65120;59.304;18.294;2024-01-30T08:55:28;102553.75;;;0.60;77.17
76311;BME280;65120;59.304;18.294;2024-01-30T08:57:56;102551.97;;;0.58;76.94
76311;BME280;65120;59.304;18.294;2024-01-30T09:00:23;102555.56;;;0.62;77.37
76311;BME280;65120;59.304;18.294;2024-01-30T09:02:50;102555.66;;;0.64;77.18
76311;BME280;65120;59.304;18.294;2024-01-30T09:05:17;102547.56;;;0.56;77.05
76311;BME280;65120;59.304;18.294;2024-01-30T09:07:44;102557.41;;;0.65;77.70
76311;BME280;65120;59.304;18.294;2024-01-30T09:10:11;102565.13;;;0.65;77.08
76311;BME280;65120;59.304;18.294;2024-01-30T09:12:38;102564.41;;;0.67;77.17
76311;BME280;65120;59.304;18.294;2024-01-30T09:15:07;102566.09;;;0.67;77.65
76311;BME280;65120;59.304;18.294;2024-01-30T09:17:34;102558.50;;;0.70;77.42
76311;BME280;65120;59.304;18.294;2024-01-30T09:20:01;102559.47;;;0.72;77.35
76311;BME280;65120;59.304;18.294;2024-01-30T09:22:28;102560.44;;;0.74;77.55
76311;BME280;65120;59.304;18.294;2024-01-30T09:24:55;102564.75;;;0.75;76.98
76311;BME280;65120;59.304;18.294;2024-01-30T09:27:22;102551.16;;;0.77;77.69
76311;BME280;65120;59.304;18.294;2024-01-30T09:29:49;102552.03;;;0.78;77.66
76311;BME280;65120;59.304;18.294;2024-01-30T09:32:17;102548.63;;;0.79;76.92
76311;BME280;65120;59.304;18.294;2024-01-30T09:34:44;102547.00;;;0.81;77.38
76311;BME280;65120;59.304;18.294;2024-01-30T09:37:11;102545.41;;;0.83;77.67
76311;BME280;65120;59.304;18.294;2024-01-30T09:39:40;102545.41;;;0.83;77.22
76311;BME280;65120;59.304;18.294;2024-01-30T09:42:12;102542.94;;;0.86;77.15
76311;BME280;65120;59.304;18.294;2024-01-30T09:44:46;102546.50;;;0.88;77.57
76311;BME280;65120;59.304;18.294;2024-01-30T09:47:17;102538.75;;;0.88;77.10
76311;BME280;65120;59.304;18.294;2024-01-30T09:49:44;102537.94;;;0.89;77.26
76311;BME280;65120;59.304;18.294;2024-01-30T09:52:11;102523.22;;;0.87;77.27
76311;BME280;65120;59.304;18.294;2024-01-30T09:54:38;102527.75;;;0.92;77.38
76311;BME280;65120;59.304;18.294;2024-01-30T09:57:05;102535.63;;;0.95;77.60
76311;BME280;65120;59.304;18.294;2024-01-30T09:59:33;102529.69;;;0.96;77.07
76311;BME280;65120;59.304;18.294;2024-01-30T10:02:00;102529.75;;;0.98;76.87
76311;BME280;65120;59.304;18.294;2024-01-30T10:04:31;102519.44;;;0.98;76.96
76311;BME280;65120;59.304;18.294;2024-01-30T10:07:00;102512.44;;;0.95;77.42
76311;BME280;65120;59.304;18.294;2024-01-30T10:09:28;102516.03;;;0.99;77.31
76311;BME280;65120;59.304;18.294;2024-01-30T10:11:57;102510.13;;;1.01;76.84
76311;BME280;65120;59.304;18.294;2024-01-30T10:14:24;102504.19;;;1.02;77.05
76311;BME280;65120;59.304;18.294;2024-01-30T10:16:51;102508.50;;;1.03;76.96
76311;BME280;65120;59.304;18.294;2024-01-30T10:19:18;102503.28;;;1.02;76.88
76311;BME280;65120;59.304;18.294;2024-01-30T10:21:47;102505.19;;;1.06;77.29
76311;BME280;65120;59.304;18.294;2024-01-30T10:24:14;102500.09;;;1.08;77.09
76311;BME280;65120;59.304;18.294;2024-01-30T10:26:43;102501.00;;;1.08;77.17
76311;BME280;65120;59.304;18.294;2024-01-30T10:29:10;102508.78;;;1.10;77.50
76311;BME280;65120;59.304;18.294;2024-01-30T10:31:37;102502.88;;;1.12;77.14
76311;BME280;65120;59.304;18.294;2024-01-30T10:34:04;102500.38;;;1.14;77.24
76311;BME280;65120;59.304;18.294;2024-01-30T10:36:35;102489.03;;;1.10;77.26
76311;BME280;65120;59.304;18.294;2024-01-30T10:39:08;102491.94;;;1.18;77.33
76311;BME280;65120;59.304;18.294;2024-01-30T10:41:42;102490.31;;;1.20;77.43
76311;BME280;65120;59.304;18.294;2024-01-30T10:44:10;102487.75;;;1.20;77.61
76311;BME280;65120;59.304;18.294;2024-01-30T10:46:38;102488.75;;;1.23;77.66
76311;BME280;65120;59.304;18.294;2024-01-30T10:49:06;102495.75;;;1.26;77.23
76311;BME280;65120;59.304;18.294;2024-01-30T10:51:34;102487.13;;;1.25;77.67
76311;BME280;65120;59.304;18.294;2024-01-30T10:54:03;102483.81;;;1.28;77.18
76311;BME280;65120;59.304;18.294;2024-01-30T10:56:33;102470.78;;;1.25;77.44
76311;BME280;65120;59.304;18.294;2024-01-30T10:59:01;102480.47;;;1.31;77.40
76311;BME280;65120;59.304;18.294;2024-01-30T11:01:29;102471.09;;;1.33;77.11
76311;BME280;65120;59.304;18.294;2024-01-30T11:03:57;102466.81;;;1.33;77.54
76311;BME280;65120;59.304;18.294;2024-01-30T11:06:25;102468.63;;;1.36;77.20
76311;BME280;65120;59.304;18.294;2024-01-30T11:09:02;102449.78;;;1.37;77.30
76311;BME280;65120;59.304;18.294;2024-01-30T11:11:49;102439.53;;;1.38;77.55
76311;BME280;65120;59.304;18.294;2024-01-30T11:14:16;102442.19;;;1.40;77.31
76311;BME280;65120;59.304;18.294;2024-01-30T11:16:43;102441.34;;;1.41;77.36
76311;BME280;65120;59.304;18.294;2024-01-30T11:19:10;102437.78;;;1.37;77.50
76311;BME280;65120;59.304;18.294;2024-01-30T11:21:41;102448.41;;;1.45;77.82
76311;BME280;65120;59.304;18.294;2024-01-30T11:24:08;102435.56;;;1.46;77.81
76311;BME280;65120;59.304;18.294;2024-01-30T11:26:35;102439.97;;;1.49;77.91
76311;BME280;65120;59.304;18.294;2024-01-30T11:29:07;102427.94;;;1.50;78.05
76311;BME280;65120;59.304;18.294;2024-01-30T11:31:34;102422.66;;;1.46;78.10
76311;BME280;65120;59.304;18.294;2024-01-30T11:34:01;102431.59;;;1.55;77.99
76311;BME280;65120;59.304;18.294;2024-01-30T11:36:29;102423.03;;;1.56;78.01
76311;BME280;65120;59.304;18.294;2024-01-30T11:38:59;102424.00;;;1.58;77.86
76311;BME280;65120;59.304;18.294;2024-01-30T11:41:26;102429.22;;;1.59;78.23
76311;BME280;65120;59.304;18.294;2024-01-30T11:43:54;102421.53;;;1.61;78.24
76311;BME280;65120;59.304;18.294;2024-01-30T11:46:24;102415.63;;;1.63;77.98
76311;BME280;65120;59.304;18.294;2024-01-30T11:48:52;102408.75;;;1.64;77.87
76311;BME280;65120;59.304;18.294;2024-01-30T11:51:19;102405.41;;;1.66;77.96
76311;BME280;65120;59.304;18.294;2024-01-30T11:53:49;102410.69;;;1.69;77.97
76311;BME280;65120;59.304;18.294;2024-01-30T11:56:16;102400.38;;;1.69;77.98
76311;BME280;65120;59.304;18.294;2024-01-30T11:58:43;102399.63;;;1.72;77.82
76311;BME280;65120;59.304;18.294;2024-01-30T12:01:10;102379.50;;;1.63;78.11
76311;BME280;65120;59.304;18.294;2024-01-30T12:03:39;102393.72;;;1.75;78.12
76311;BME280;65120;59.304;18.294;2024-01-30T12:06:06;102403.28;;;1.77;78.04
76311;BME280;65120;59.304;18.294;2024-01-30T12:08:33;102395.56;;;1.79;78.04
76311;BME280;65120;59.304;18.294;2024-01-30T12:11:00;102394.81;;;1.81;78.27
76311;BME280;65120;59.304;18.294;2024-01-30T12:13:30;102394.81;;;1.81;78.15
76311;BME280;65120;59.304;18.294;2024-01-30T12:15:57;102388.03;;;1.83;77.86
76311;BME280;65120;59.304;18.294;2024-01-30T12:18:24;102383.81;;;1.85;78.08
76311;BME280;65120;59.304;18.294;2024-01-30T12:20:59;102393.38;;;1.88;78.34
76311;BME280;65120;59.304;18.294;2024-01-30T12:23:27;102382.97;;;1.86;77.95
76311;BME280;65120;59.304;18.294;2024-01-30T12:25:54;102378.88;;;1.91;78.02
76311;BME280;65120;59.304;18.294;2024-01-30T12:28:21;102368.59;;;1.93;78.24
76311;BME280;65120;59.304;18.294;2024-01-30T12:30:48;102373.00;;;1.96;78.12
76311;BME280;65120;59.304;18.294;2024-01-30T12:33:16;102362.75;;;1.97;78.15
76311;BME280;65120;59.304;18.294;2024-01-30T12:35:45;102357.63;;;1.99;78.31
76311;BME280;65120;59.304;18.294;2024-01-30T12:38:14;102353.41;;;2.01;78.27
76311;BME280;65120;59.304;18.294;2024-01-30T12:40:41;102342.22;;;2.00;78.34
76311;BME280;65120;59.304;18.294;2024-01-30T12:43:08;102339.75;;;2.03;78.08
76311;BME280;65120;59.304;18.294;2024-01-30T12:45:36;102337.22;;;2.05;78.24
76311;BME280;65120;59.304;18.294;2024-01-30T12:48:03;102347.56;;;2.05;77.99
76311;BME280;65120;59.304;18.294;2024-01-30T12:50:30;102356.22;;;2.07;78.05
76311;BME280;65120;59.304;18.294;2024-01-30T12:52:57;102333.72;;;2.03;77.85